createdAt,value
2022-08-23T00:01:21.120Z,25.00
2022-08-23T00:03:50.593Z,25.00
2022-08-23T00:06:22.066Z,25.00
2022-08-23T00:08:51.223Z,24.90
2022-08-23T00:11:30.614Z,25.00
2022-08-23T00:14:00.930Z,25.00
2022-08-23T00:16:29.688Z,25.00
2022-08-23T00:18:58.024Z,25.00
2022-08-23T00:21:29.196Z,24.90
2022-08-23T00:23:57.250Z,25.00
2022-08-23T00:26:25.738Z,25.00
2022-08-23T00:28:53.946Z,25.00
2022-08-23T00:31:21.912Z,25.00
2022-08-23T00:33:49.834Z,24.90
2022-08-23T00:36:17.758Z,25.00
2022-08-23T00:38:47.100Z,24.90
2022-08-23T00:41:15.124Z,25.00
2022-08-23T00:44:00.970Z,24.90
2022-08-23T00:47:01.988Z,25.00
2022-08-23T00:49:32.772Z,25.00
2022-08-23T00:52:07.156Z,24.90
2022-08-23T00:54:38.741Z,24.90
2022-08-23T00:57:15.495Z,24.90
2022-08-23T00:59:43.444Z,24.90
2022-08-23T01:02:11.888Z,25.00
2022-08-23T01:04:42.530Z,25.00
2022-08-23T01:07:18.081Z,24.90
2022-08-23T01:09:50.637Z,25.00
2022-08-23T01:12:32.639Z,24.90
2022-08-23T01:15:04.741Z,24.90
2022-08-23T01:17:37.855Z,25.00
2022-08-23T01:20:10.543Z,24.90
2022-08-23T01:22:42.675Z,24.90
2022-08-23T01:25:18.080Z,24.90
2022-08-23T01:27:46.714Z,24.90
2022-08-23T01:30:17.939Z,24.90
2022-08-23T01:32:48.760Z,24.90
2022-08-23T01:35:17.642Z,24.90
2022-08-23T01:37:46.221Z,24.90
2022-08-23T01:40:16.159Z,24.90
2022-08-23T01:42:44.216Z,24.90
2022-08-23T01:45:14.366Z,24.90
2022-08-23T01:47:42.897Z,24.90
2022-08-23T01:50:13.320Z,24.90
2022-08-23T01:52:47.306Z,24.90
2022-08-23T01:55:17.529Z,24.90
2022-08-23T01:57:49.501Z,24.90
2022-08-23T02:00:18.033Z,24.90
2022-08-23T02:02:46.985Z,24.90
2022-08-23T02:05:18.768Z,24.90
2022-08-23T02:07:47.250Z,24.90
2022-08-23T02:10:17.150Z,24.90
2022-08-23T02:12:46.644Z,24.90
2022-08-23T02:15:15.758Z,24.90
2022-08-23T02:17:46.313Z,24.90
2022-08-23T02:20:14.752Z,24.90
2022-08-23T02:22:42.887Z,24.90
2022-08-23T02:25:11.375Z,24.90
2022-08-23T02:27:43.977Z,24.90
2022-08-23T02:30:13.474Z,24.90
2022-08-23T02:32:42.218Z,24.90
2022-08-23T02:35:10.842Z,24.90
2022-08-23T02:37:39.128Z,24.90
2022-08-23T02:40:08.112Z,24.90
2022-08-23T02:42:36.127Z,24.90
2022-08-23T02:45:08.308Z,24.90
2022-08-23T02:47:36.881Z,24.90
2022-08-23T02:50:05.756Z,24.90
2022-08-23T02:52:33.933Z,24.90
2022-08-23T02:55:01.875Z,24.90
2022-08-23T02:57:29.855Z,24.90
2022-08-23T02:59:59.643Z,24.90
2022-08-23T03:02:29.558Z,24.90
2022-08-23T03:04:57.982Z,24.90
2022-08-23T03:07:25.970Z,24.90
2022-08-23T03:09:53.910Z,24.90
2022-08-23T03:12:21.845Z,24.90
2022-08-23T03:14:52.095Z,24.80
2022-08-23T03:17:20.972Z,24.90
2022-08-23T03:19:52.266Z,24.90
2022-08-23T03:22:20.624Z,24.90
2022-08-23T03:24:48.610Z,24.90
2022-08-23T03:27:16.720Z,24.90
2022-08-23T03:29:44.638Z,24.90
2022-08-23T03:32:13.526Z,24.80
2022-08-23T03:34:43.661Z,24.80
2022-08-23T03:37:13.042Z,24.90
2022-08-23T03:39:41.039Z,24.80
2022-08-23T03:42:09.156Z,24.80
2022-08-23T03:44:37.164Z,24.90
2022-08-23T03:47:05.980Z,24.80
2022-08-23T03:49:34.066Z,24.90
2022-08-23T03:52:02.280Z,24.80
2022-08-23T03:54:31.616Z,24.80
2022-08-23T03:57:02.607Z,24.80
2022-08-23T03:59:32.560Z,24.80
2022-08-23T04:02:00.934Z,24.80
2022-08-23T04:04:29.024Z,24.80
2022-08-23T04:06:57.285Z,24.80
2022-08-23T04:09:25.247Z,24.80
2022-08-23T04:11:54.493Z,24.80
2022-08-23T04:14:22.590Z,24.80
2022-08-23T04:16:50.875Z,24.80
2022-08-23T04:19:19.015Z,24.80
2022-08-23T04:21:52.168Z,24.80
2022-08-23T04:24:20.622Z,24.80
2022-08-23T04:26:49.538Z,24.80
2022-08-23T04:29:33.785Z,24.80
2022-08-23T04:32:02.815Z,24.80
2022-08-23T04:34:34.787Z,24.80
2022-08-23T04:37:03.001Z,24.80
2022-08-23T04:39:51.800Z,24.80
2022-08-23T04:42:23.108Z,24.80
2022-08-23T04:44:52.579Z,24.80
2022-08-23T04:47:21.409Z,24.80
2022-08-23T04:49:49.336Z,24.80
2022-08-23T04:52:19.436Z,24.80
2022-08-23T04:54:48.036Z,24.80
2022-08-23T04:57:16.808Z,24.80
2022-08-23T04:59:44.843Z,24.80
2022-08-23T05:02:14.854Z,24.80
2022-08-23T05:04:42.815Z,24.80
2022-08-23T05:07:10.847Z,24.80
2022-08-23T05:09:38.730Z,24.80
2022-08-23T05:12:07.020Z,24.80
2022-08-23T05:14:35.046Z,24.80
2022-08-23T05:17:03.459Z,24.80
2022-08-23T05:19:33.217Z,24.70
2022-08-23T05:22:02.585Z,24.80
2022-08-23T05:24:30.725Z,24.70
2022-08-23T05:26:58.787Z,24.70
2022-08-23T05:29:26.763Z,24.70
2022-08-23T05:31:55.520Z,24.70
2022-08-23T05:34:23.593Z,24.70
2022-08-23T05:36:55.270Z,24.70
2022-08-23T05:39:36.099Z,24.70
2022-08-23T05:42:04.978Z,24.70
2022-08-23T05:44:36.212Z,24.70
2022-08-23T05:47:10.181Z,24.70
2022-08-23T05:49:39.437Z,24.70
2022-08-23T05:52:12.748Z,24.70
2022-08-23T05:54:41.196Z,24.70
2022-08-23T05:57:10.534Z,24.70
2022-08-23T05:59:38.546Z,24.70
2022-08-23T06:02:06.479Z,24.70
2022-08-23T06:04:34.386Z,24.70
2022-08-23T06:07:02.317Z,24.70
2022-08-23T06:09:31.564Z,24.70
2022-08-23T06:12:00.030Z,24.70
2022-08-23T06:14:28.624Z,24.70
2022-08-23T06:16:56.700Z,24.70
2022-08-23T06:19:25.123Z,24.70
2022-08-23T06:21:53.778Z,24.70
2022-08-23T06:24:23.220Z,24.70
2022-08-23T06:26:52.565Z,24.70
2022-08-23T06:29:21.672Z,24.70
2022-08-23T06:31:51.904Z,24.70
2022-08-23T06:34:22.022Z,24.70
2022-08-23T06:36:52.380Z,24.70
2022-08-23T06:39:22.200Z,24.60
2022-08-23T06:41:51.783Z,24.60
2022-08-23T06:44:20.896Z,24.70
2022-08-23T06:46:49.363Z,24.60
2022-08-23T06:49:18.062Z,24.60
2022-08-23T06:51:49.781Z,24.60
2022-08-23T06:54:20.586Z,24.60
2022-08-23T06:56:49.675Z,24.60
2022-08-23T06:59:19.662Z,24.60
2022-08-23T07:01:50.772Z,24.60
2022-08-23T07:04:21.402Z,24.60
2022-08-23T07:06:49.635Z,24.60
2022-08-23T07:09:18.614Z,24.60
2022-08-23T07:11:47.120Z,24.60
2022-08-23T07:14:19.224Z,24.60
2022-08-23T07:16:49.863Z,24.60
2022-08-23T07:19:20.341Z,24.60
2022-08-23T07:21:48.912Z,24.60
2022-08-23T07:24:18.388Z,24.60
2022-08-23T07:26:47.486Z,24.60
2022-08-23T07:29:17.442Z,24.60
2022-08-23T07:31:48.983Z,24.60
2022-08-23T07:34:17.430Z,24.60
2022-08-23T07:36:46.608Z,24.60
2022-08-23T07:39:16.642Z,24.60
2022-08-23T07:41:45.252Z,24.60
2022-08-23T07:44:17.423Z,24.60
2022-08-23T07:46:49.218Z,24.60
2022-08-23T07:49:18.155Z,24.60
2022-08-23T07:51:49.251Z,24.60
2022-08-23T07:54:19.254Z,24.60
2022-08-23T07:56:47.623Z,24.60
2022-08-23T07:59:15.798Z,24.60
2022-08-23T08:01:48.083Z,24.60
2022-08-23T08:04:16.000Z,24.60
2022-08-23T08:06:59.823Z,24.60
2022-08-23T08:09:35.873Z,24.60
2022-08-23T08:12:04.203Z,24.60
2022-08-23T08:14:32.140Z,24.60
2022-08-23T08:17:05.300Z,24.60
2022-08-23T08:19:33.412Z,24.60
2022-08-23T08:22:01.310Z,24.60
2022-08-23T08:24:30.404Z,24.60
2022-08-23T08:26:58.372Z,24.60
2022-08-23T08:29:26.389Z,24.60
2022-08-23T08:31:54.616Z,24.60
2022-08-23T08:34:24.218Z,24.60
2022-08-23T08:36:54.301Z,24.60
2022-08-23T08:39:25.483Z,24.60
2022-08-23T08:42:07.140Z,24.60
2022-08-23T08:44:41.273Z,24.60
2022-08-23T08:47:15.196Z,24.60
2022-08-23T08:49:49.805Z,24.60
2022-08-23T08:52:21.847Z,24.60
2022-08-23T08:54:53.277Z,24.60
2022-08-23T08:57:27.732Z,24.60
2022-08-23T09:00:01.787Z,24.60
2022-08-23T09:02:33.800Z,24.60
2022-08-23T09:05:08.475Z,24.60
2022-08-23T09:07:47.676Z,24.60
2022-08-23T09:10:53.013Z,24.60
2022-08-23T09:13:53.453Z,24.60
2022-08-23T09:16:32.871Z,24.60
2022-08-23T09:19:02.603Z,24.60
2022-08-23T09:21:44.522Z,24.60
2022-08-23T09:24:13.342Z,24.60
2022-08-23T09:26:43.500Z,24.60
2022-08-23T09:29:21.847Z,24.60
2022-08-23T09:31:52.595Z,24.60
2022-08-23T09:34:23.811Z,24.60
2022-08-23T09:36:54.387Z,24.60
2022-08-23T09:39:30.731Z,24.60
2022-08-23T09:42:00.659Z,24.50
2022-08-23T09:44:35.994Z,24.60
2022-08-23T09:47:07.924Z,24.50
2022-08-23T09:49:35.881Z,24.50
2022-08-23T09:52:22.297Z,24.50
2022-08-23T09:54:57.943Z,24.60
2022-08-23T09:57:28.862Z,24.60
2022-08-23T10:00:01.618Z,24.60
2022-08-23T10:02:32.731Z,24.60
2022-08-23T10:05:03.109Z,24.50
2022-08-23T10:07:38.253Z,24.60
2022-08-23T10:10:23.285Z,24.60
2022-08-23T10:12:51.992Z,24.60
2022-08-23T10:15:20.566Z,24.50
2022-08-23T10:17:55.285Z,24.50
2022-08-23T10:20:35.893Z,24.50
2022-08-23T10:23:19.956Z,24.50
2022-08-23T10:25:54.256Z,24.50
2022-08-23T10:28:51.486Z,24.60
2022-08-23T10:31:28.929Z,24.50
2022-08-23T10:34:07.826Z,24.60
2022-08-23T10:36:45.226Z,24.50
2022-08-23T10:39:25.527Z,24.50
2022-08-23T10:42:00.130Z,24.50
2022-08-23T10:44:35.138Z,24.50
2022-08-23T10:47:19.588Z,24.50
2022-08-23T10:49:51.206Z,24.50
2022-08-23T10:52:24.577Z,24.50
2022-08-23T10:55:06.032Z,24.50
2022-08-23T10:57:38.162Z,24.50
2022-08-23T11:00:09.768Z,24.50
2022-08-23T11:02:45.055Z,24.50
2022-08-23T11:05:21.570Z,24.50
2022-08-23T11:07:59.747Z,24.50
2022-08-23T11:10:34.767Z,24.50
2022-08-23T11:13:08.228Z,24.50
2022-08-23T11:15:44.832Z,24.50
2022-08-23T11:18:39.634Z,24.50
2022-08-23T11:21:11.958Z,24.50
2022-08-23T11:23:46.928Z,24.50
2022-08-23T11:27:06.633Z,24.50
2022-08-23T11:29:37.779Z,24.50
2022-08-23T11:32:34.958Z,24.50
2022-08-23T11:35:43.035Z,24.50
2022-08-23T11:38:13.670Z,24.50
2022-08-23T11:41:07.658Z,24.50
2022-08-23T11:43:39.151Z,24.50
2022-08-23T11:46:42.508Z,24.50
2022-08-23T11:49:44.684Z,24.50
2022-08-23T11:52:27.638Z,24.50
2022-08-23T11:55:17.487Z,24.50
2022-08-23T11:58:04.346Z,24.50
2022-08-23T12:00:57.398Z,24.50
2022-08-23T12:03:33.585Z,24.50
2022-08-23T12:06:43.108Z,24.50
2022-08-23T12:09:54.363Z,24.50
2022-08-23T12:12:34.829Z,24.50
2022-08-23T12:15:09.714Z,24.50
2022-08-23T12:18:14.078Z,24.50
2022-08-23T12:20:43.275Z,24.50
2022-08-23T12:23:20.842Z,24.50
2022-08-23T12:26:07.976Z,24.50
2022-08-23T12:28:42.745Z,24.50
2022-08-23T12:31:19.990Z,24.50
2022-08-23T12:34:17.864Z,24.50
2022-08-23T12:36:51.909Z,24.50
2022-08-23T12:39:26.530Z,24.50
2022-08-23T12:41:59.959Z,24.50
2022-08-23T12:44:29.941Z,24.50
2022-08-23T12:47:13.589Z,24.50
2022-08-23T12:49:41.794Z,24.50
2022-08-23T12:52:12.734Z,24.50
2022-08-23T12:54:42.982Z,24.50
2022-08-23T12:57:18.831Z,24.50
2022-08-23T12:59:59.981Z,24.50
2022-08-23T13:02:48.847Z,24.50
2022-08-23T13:05:27.042Z,24.50
2022-08-23T13:07:55.533Z,24.60
2022-08-23T13:10:24.914Z,24.50
2022-08-23T13:12:54.475Z,24.50
2022-08-23T13:15:42.153Z,24.60
2022-08-23T13:18:10.297Z,24.60
2022-08-23T13:20:39.398Z,24.60
2022-08-23T13:23:10.193Z,24.60
2022-08-23T13:25:40.770Z,24.60
2022-08-23T13:28:24.389Z,24.60
2022-08-23T13:31:00.864Z,24.60
2022-08-23T13:33:28.846Z,24.60
2022-08-23T13:36:13.260Z,24.60
2022-08-23T13:38:43.484Z,24.60
2022-08-23T13:41:27.441Z,24.60
2022-08-23T13:43:57.115Z,24.60
2022-08-23T13:46:27.421Z,24.60
2022-08-23T13:49:00.983Z,24.60
2022-08-23T13:51:31.727Z,24.60
2022-08-23T13:54:02.308Z,24.60
2022-08-23T13:56:32.534Z,24.60
2022-08-23T13:59:04.743Z,24.60
2022-08-23T14:01:32.872Z,24.60
2022-08-23T14:04:00.914Z,24.60
2022-08-23T14:06:28.956Z,24.60
2022-08-23T14:08:56.905Z,24.60
2022-08-23T14:11:24.859Z,24.60
2022-08-23T14:13:53.012Z,24.60
2022-08-23T14:16:35.232Z,24.60
2022-08-23T14:19:16.640Z,24.60
2022-08-23T14:21:56.280Z,24.60
2022-08-23T14:24:26.863Z,24.60
2022-08-23T14:26:55.630Z,24.60
2022-08-23T14:29:24.790Z,24.60
2022-08-23T14:31:54.105Z,24.60
2022-08-23T14:34:22.773Z,24.60
2022-08-23T14:39:41.216Z,24.60
2022-08-23T14:42:09.782Z,24.60
2022-08-23T14:44:37.698Z,24.60
2022-08-23T14:47:07.464Z,24.70
2022-08-23T14:49:36.027Z,24.70
2022-08-23T14:52:04.674Z,24.60
2022-08-23T14:54:33.480Z,24.70
2022-08-23T14:57:01.516Z,24.70
2022-08-23T14:59:29.448Z,24.60
2022-08-23T15:01:58.460Z,24.70
2022-08-23T15:04:34.456Z,24.70
2022-08-23T15:07:19.496Z,24.70
2022-08-23T15:09:48.674Z,24.70
2022-08-23T15:15:05.802Z,24.70
2022-08-23T15:17:37.624Z,24.70
2022-08-23T15:20:07.871Z,24.70
2022-08-23T15:22:39.968Z,24.70
2022-08-23T15:25:13.752Z,24.70
2022-08-23T15:27:42.240Z,24.70
2022-08-23T15:30:11.837Z,24.70
2022-08-23T15:32:39.879Z,24.70
2022-08-23T15:35:21.967Z,24.80
2022-08-23T15:37:50.848Z,24.80
2022-08-23T15:40:19.530Z,24.80
2022-08-23T15:42:47.799Z,24.80
2022-08-23T15:45:15.956Z,24.80
2022-08-23T15:47:48.381Z,24.80
2022-08-23T15:50:18.902Z,24.80
2022-08-23T15:52:48.192Z,24.80
2022-08-23T15:55:17.283Z,24.80
2022-08-23T15:57:47.539Z,24.80
2022-08-23T16:00:18.558Z,24.80
2022-08-23T16:03:18.429Z,24.80
2022-08-23T16:05:34.983Z,24.80
2022-08-23T16:08:04.811Z,24.80
2022-08-23T16:10:32.751Z,24.80
2022-08-23T16:13:00.787Z,24.80
2022-08-23T16:15:28.895Z,24.80
2022-08-23T16:17:56.855Z,24.80
2022-08-23T16:20:25.334Z,24.80
2022-08-23T16:22:53.311Z,24.80
2022-08-23T16:25:22.637Z,24.80
2022-08-23T16:27:50.879Z,24.80
2022-08-23T16:30:19.069Z,24.80
2022-08-23T16:32:47.071Z,24.80
2022-08-23T16:35:15.702Z,24.90
2022-08-23T16:37:43.674Z,24.90
2022-08-23T16:40:13.173Z,24.90
2022-08-23T16:42:42.968Z,24.90
2022-08-23T16:45:12.159Z,24.80
2022-08-23T16:47:42.991Z,24.90
2022-08-23T16:50:14.628Z,24.90
2022-08-23T16:52:43.222Z,24.90
2022-08-23T16:55:13.367Z,24.90
2022-08-23T16:57:42.701Z,24.90
2022-08-23T17:00:13.066Z,24.90
2022-08-23T17:02:41.351Z,24.90
2022-08-23T17:05:11.841Z,24.90
2022-08-23T17:07:39.827Z,24.90
2022-08-23T17:10:10.062Z,24.90
2022-08-23T17:12:42.070Z,24.90
2022-08-23T17:15:19.769Z,24.90
2022-08-23T17:17:48.579Z,24.90
2022-08-23T17:20:18.548Z,24.90
2022-08-23T17:22:47.237Z,24.90
2022-08-23T17:25:15.460Z,24.90
2022-08-23T17:27:46.219Z,25.00
2022-08-23T17:30:18.351Z,24.90
2022-08-23T17:32:47.660Z,25.00
2022-08-23T17:35:17.852Z,25.00
2022-08-23T17:37:46.668Z,25.00
2022-08-23T17:40:21.105Z,25.00
2022-08-23T17:42:49.906Z,25.00
2022-08-23T17:45:19.754Z,25.00
2022-08-23T17:47:48.654Z,25.00
2022-08-23T17:50:18.150Z,25.00
2022-08-23T17:52:46.926Z,25.00
2022-08-23T17:55:17.303Z,25.00
2022-08-23T17:57:48.443Z,25.00
2022-08-23T18:00:20.574Z,25.00
2022-08-23T18:02:49.069Z,25.00
2022-08-23T18:05:17.069Z,25.00
2022-08-23T18:07:45.085Z,25.00
2022-08-23T18:10:14.097Z,25.00
2022-08-23T18:12:42.363Z,25.00
2022-08-23T18:15:11.094Z,25.00
2022-08-23T18:17:40.859Z,25.00
2022-08-23T18:20:11.130Z,25.00
2022-08-23T18:22:39.197Z,25.00
2022-08-23T18:25:09.917Z,25.00
2022-08-23T18:27:55.656Z,25.00
2022-08-23T18:30:23.608Z,25.00
2022-08-23T18:32:52.988Z,25.00
2022-08-23T18:35:21.600Z,25.00
2022-08-23T18:37:49.567Z,25.00
2022-08-23T18:40:17.610Z,25.00
2022-08-23T18:42:46.071Z,25.00
2022-08-23T18:45:14.938Z,25.00
2022-08-23T18:47:43.130Z,25.00
2022-08-23T18:50:13.994Z,25.00
2022-08-23T18:52:42.029Z,25.00
2022-08-23T18:55:10.741Z,25.10
2022-08-23T18:57:39.157Z,25.00
2022-08-23T19:00:10.187Z,25.10
2022-08-23T19:02:38.170Z,25.10
2022-08-23T19:05:07.025Z,25.10
2022-08-23T19:07:36.377Z,25.10
2022-08-23T19:10:04.727Z,25.10
2022-08-23T19:12:33.092Z,25.10
2022-08-23T19:15:01.200Z,25.10
2022-08-23T19:17:29.107Z,25.10
2022-08-23T19:19:57.090Z,25.10
2022-08-23T19:22:25.064Z,25.10
2022-08-23T19:24:54.556Z,25.10
2022-08-23T19:27:22.469Z,25.10
2022-08-23T19:29:50.890Z,25.10
2022-08-23T19:32:19.256Z,25.10
2022-08-23T19:34:48.528Z,25.10
2022-08-23T19:37:22.719Z,25.10
2022-08-23T19:39:51.981Z,25.10
2022-08-23T19:42:21.573Z,25.10
2022-08-23T19:44:49.984Z,25.10
2022-08-23T19:47:20.172Z,25.10
2022-08-23T19:49:49.657Z,25.10
2022-08-23T19:52:17.839Z,25.10
2022-08-23T19:54:45.786Z,25.10
2022-08-23T19:57:14.083Z,25.10
2022-08-23T19:59:43.982Z,25.10
2022-08-23T20:02:13.925Z,25.10
2022-08-23T20:04:42.324Z,25.10
2022-08-23T20:07:10.381Z,25.10
2022-08-23T20:09:38.539Z,25.10
2022-08-23T20:12:07.529Z,25.10
2022-08-23T20:14:36.324Z,25.10
2022-08-23T20:17:07.435Z,25.10
2022-08-23T20:19:36.115Z,25.20
2022-08-23T20:22:22.881Z,25.20
2022-08-23T20:24:52.638Z,25.20
2022-08-23T20:27:28.849Z,25.20
2022-08-23T20:29:59.873Z,25.10
2022-08-23T20:32:29.686Z,25.20
2022-08-23T20:34:57.679Z,25.20
2022-08-23T20:37:25.688Z,25.20
2022-08-23T20:39:54.400Z,25.20
2022-08-23T20:42:22.494Z,25.10
2022-08-23T20:44:50.487Z,25.20
2022-08-23T20:47:18.712Z,25.20
2022-08-23T20:49:48.247Z,25.20
2022-08-23T20:52:16.677Z,25.10
2022-08-23T20:54:44.877Z,25.20
2022-08-23T20:57:13.145Z,25.20
2022-08-23T20:59:44.363Z,25.20
2022-08-23T21:02:12.941Z,25.20
2022-08-23T21:04:41.025Z,25.20
2022-08-23T21:07:10.438Z,25.10
2022-08-23T21:09:39.292Z,25.20
2022-08-23T21:12:07.628Z,25.20
2022-08-23T21:14:36.020Z,25.20
2022-08-23T21:17:04.028Z,25.20
2022-08-23T21:19:32.339Z,25.20
2022-08-23T21:22:00.362Z,25.20
2022-08-23T21:24:29.701Z,25.20
2022-08-23T21:26:57.689Z,25.20
2022-08-23T21:29:25.684Z,25.20
2022-08-23T21:31:53.761Z,25.20
2022-08-23T21:34:21.746Z,25.20
2022-08-23T21:36:51.208Z,25.20
2022-08-23T21:39:19.204Z,25.20
2022-08-23T21:41:49.238Z,25.20
2022-08-23T21:44:19.037Z,25.20
2022-08-23T21:46:48.033Z,25.20
2022-08-23T21:49:17.130Z,25.20
2022-08-23T21:51:46.532Z,25.20
2022-08-23T21:54:15.704Z,25.20
2022-08-23T21:56:44.003Z,25.20
2022-08-23T21:59:16.622Z,25.20
2022-08-23T22:01:45.124Z,25.20
2022-08-23T22:04:14.749Z,25.20
2022-08-23T22:06:44.501Z,25.20
2022-08-23T22:09:16.085Z,25.20
2022-08-23T22:11:45.705Z,25.20
2022-08-23T22:14:17.669Z,25.20
2022-08-23T22:16:45.660Z,25.20
2022-08-23T22:19:15.226Z,25.20
2022-08-23T22:21:43.744Z,25.20
2022-08-23T22:24:12.027Z,25.20
2022-08-23T22:26:40.994Z,25.20
2022-08-23T22:29:09.382Z,25.20
2022-08-23T22:31:39.549Z,25.20
2022-08-23T22:34:09.506Z,25.20
2022-08-23T22:36:37.694Z,25.20
2022-08-23T22:39:06.132Z,25.20
2022-08-23T22:41:34.264Z,25.20
2022-08-23T22:44:03.610Z,25.20
2022-08-23T22:46:34.795Z,25.20
2022-08-23T22:49:04.256Z,25.20
2022-08-23T22:51:35.045Z,25.20
2022-08-23T22:54:06.787Z,25.20
2022-08-23T22:56:39.803Z,25.20
2022-08-23T22:59:08.063Z,25.20
2022-08-23T23:01:39.358Z,25.20
2022-08-23T23:04:11.164Z,25.20
2022-08-23T23:06:39.980Z,25.20
2022-08-23T23:09:10.873Z,25.30
2022-08-23T23:11:40.411Z,25.20
2022-08-23T23:14:09.981Z,25.30
2022-08-23T23:16:38.438Z,25.20
2022-08-23T23:19:34.138Z,25.20
2022-08-23T23:22:02.527Z,25.30
2022-08-23T23:24:33.920Z,25.30
2022-08-23T23:27:02.421Z,25.30
2022-08-23T23:29:32.067Z,25.30
2022-08-23T23:32:00.373Z,25.30
2022-08-23T23:34:29.956Z,25.30
2022-08-23T23:36:59.031Z,25.30
2022-08-23T23:39:27.877Z,25.30
2022-08-23T23:41:56.464Z,25.30
2022-08-23T23:44:31.019Z,25.30
2022-08-23T23:47:00.541Z,25.30
2022-08-23T23:49:33.084Z,25.30
2022-08-23T23:52:02.463Z,25.30
2022-08-23T23:54:30.406Z,25.30
2022-08-23T23:56:58.382Z,25.30
2022-08-23T23:59:27.234Z,25.30
